KFYJ

Middle Peninsula Regional Airport

West Point, Virginia, USA
METAR KFYJ 150315Z AUTO 00000KT 10SM CLR 23/22 A2999 RMK AO1 T02320221
Observed Flight Rules
Aug-15 @ 03:15 UTC (20 minutes ago) Visual Flight Rules
Visibility Clouds
10 miles
  • Clear skies
Temperatures Readings
Current 23°C / 73°F
Dewpoint 22°C / 72°F
Humidity 94%
Altimeter 29.99" Hg
Pressure 1016 hPa
Elevation 7
METAR KFYJ 150315Z AUTO 00000KT 10SM CLR 23/22 A2999 RMK AO1 T02320221
Observed Flight Rules
Aug-15 @ 03:15 UTC
(20 minutes ago)
VFR
Clouds
  • Clear skies
Temperature Dewpoint
23°C / 73°F 22°C / 72°F
Humidity Altimeter Pressure
94% 29.99" Hg 1016 hPa